Time,TemperatureF,DewpointF,PressureIn,WindDirection,WindDirectionDegrees,WindSpeedMPH,WindSpeedGustMPH,Humidity,HourlyPrecipIn,Conditions,Clouds,dailyrainin,SoftwareType,DateUTC
2013-07-24 00:04:00,59.0,48.4,30.17,SSE,163,0.0,0.0,68,0.00,,,0.00,meteohub,2013-07-24 07:04:00,
2013-07-24 00:09:00,58.8,48.2,30.17,SSE,154,0.0,0.0,68,0.00,,,0.00,meteohub,2013-07-24 07:09:00,
2013-07-24 00:14:00,58.6,48.2,30.17,SE,146,0.0,0.0,68,0.00,,,0.00,meteohub,2013-07-24 07:14:00,
2013-07-24 00:19:00,58.5,48.4,30.17,SSE,151,0.0,0.0,69,0.00,,,0.00,meteohub,2013-07-24 07:19:00,
2013-07-24 00:25:00,58.5,48.4,30.17,SSE,164,0.0,0.0,69,0.00,,,0.00,meteohub,2013-07-24 07:25:00,
2013-07-24 00:30:00,58.3,48.2,30.17,SSE,161,0.0,0.0,69,0.00,,,0.00,meteohub,2013-07-24 07:30:00,
2013-07-24 00:35:00,58.3,48.2,30.17,SE,134,0.0,0.0,69,0.00,,,0.00,meteohub,2013-07-24 07:35:00,
2013-07-24 00:40:00,58.1,48.0,30.17,SE,128,0.0,0.0,69,0.00,,,0.00,meteohub,2013-07-24 07:40:00,
2013-07-24 00:45:00,57.9,48.2,30.17,South,169,0.0,0.0,70,0.00,,,0.00,meteohub,2013-07-24 07:45:00,
2013-07-24 00:50:00,57.6,47.8,30.17,SSE,167,0.0,0.0,70,0.00,,,0.00,meteohub,2013-07-24 07:50:00,
2013-07-24 00:55:00,57.4,47.7,30.17,ESE,111,0.0,0.0,70,0.00,,,0.00,meteohub,2013-07-24 07:55:00,
2013-07-24 01:00:00,57.4,47.7,30.16,South,169,0.0,0.0,70,0.00,,,0.00,meteohub,2013-07-24 08:00:00,
2013-07-24 01:05:00,57.2,47.8,30.17,SSE,157,0.0,0.0,71,0.00,,,0.00,meteohub,2013-07-24 08:05:00,
2013-07-24 01:10:00,57.0,47.7,30.16,SSW,210,0.0,0.0,71,0.00,,,0.00,meteohub,2013-07-24 08:10:00,
2013-07-24 01:15:00,57.0,47.7,30.16,SSE,153,0.0,0.0,71,0.00,,,0.00,meteohub,2013-07-24 08:15:00,
2013-07-24 01:20:00,56.8,47.5,30.16,SSE,161,0.0,0.0,71,0.00,,,0.00,meteohub,2013-07-24 08:20:00,
2013-07-24 01:25:00,56.8,47.8,30.16,SSE,168,0.0,0.0,72,0.00,,,0.00,meteohub,2013-07-24 08:25:00,
2013-07-24 01:31:00,56.7,47.7,30.17,SSE,148,0.0,0.0,72,0.00,,,0.00,meteohub,2013-07-24 08:31:00,
2013-07-24 01:36:00,56.5,47.5,30.16,SSW,194,0.0,0.0,72,0.00,,,0.00,meteohub,2013-07-24 08:36:00,
2013-07-24 01:41:00,56.3,47.5,30.16,SSW,196,0.0,0.0,72,0.00,,,0.00,meteohub,2013-07-24 08:41:00,
2013-07-24 01:46:00,56.1,47.3,30.17,SSW,203,0.0,0.0,72,0.00,,,0.00,meteohub,2013-07-24 08:46:00,
2013-07-24 01:51:00,56.1,47.3,30.16,South,190,0.0,0.0,72,0.00,,,0.00,meteohub,2013-07-24 08:51:00,
2013-07-24 01:56:00,56.1,47.3,30.16,SSW,203,0.0,0.0,72,0.00,,,0.00,meteohub,2013-07-24 08:56:00,
2013-07-24 02:01:00,56.1,47.3,30.16,South,190,0.0,3.0,72,0.00,,,0.00,meteohub,2013-07-24 09:01:00,
2013-07-24 02:06:00,56.1,47.3,30.16,SSW,209,0.0,3.0,72,0.00,,,0.00,meteohub,2013-07-24 09:06:00,
2013-07-24 02:11:00,56.1,47.3,30.16,SSE,148,0.0,3.0,72,0.00,,,0.00,meteohub,2013-07-24 09:11:00,
2013-07-24 02:16:00,55.9,47.1,30.16,SSE,160,0.0,1.0,72,0.00,,,0.00,meteohub,2013-07-24 09:16:00,
2013-07-24 02:22:00,55.8,47.3,30.16,SSE,155,0.0,1.0,73,0.00,,,0.00,meteohub,2013-07-24 09:22:00,
2013-07-24 02:27:00,55.6,47.1,30.16,SSW,194,0.0,0.0,73,0.00,,,0.00,meteohub,2013-07-24 09:27:00,
2013-07-24 02:32:00,55.6,47.1,30.16,SSW,199,0.0,1.0,73,0.00,,,0.00,meteohub,2013-07-24 09:32:00,
2013-07-24 02:37:00,55.6,47.1,30.16,SSE,165,0.0,1.0,73,0.00,,,0.00,meteohub,2013-07-24 09:37:00,
2013-07-24 02:42:00,55.6,47.1,30.16,SE,140,0.0,1.0,73,0.00,,,0.00,meteohub,2013-07-24 09:42:00,
2013-07-24 02:47:00,55.6,47.1,30.15,SSE,157,0.0,1.0,73,0.00,,,0.00,meteohub,2013-07-24 09:47:00,
2013-07-24 02:52:00,55.4,46.9,30.15,SSE,157,0.0,1.0,73,0.00,,,0.00,meteohub,2013-07-24 09:52:00,
2013-07-24 02:57:00,55.4,46.9,30.15,SE,138,0.0,1.0,73,0.00,,,0.00,meteohub,2013-07-24 09:57:00,
2013-07-24 03:02:00,55.2,46.8,30.16,South,183,0.0,1.0,73,0.00,,,0.00,meteohub,2013-07-24 10:02:00,
2013-07-24 03:07:00,55.2,47.1,30.15,SSE,161,0.0,1.0,74,0.00,,,0.00,meteohub,2013-07-24 10:07:00,
2013-07-24 03:12:00,55.0,46.9,30.15,SSE,160,0.0,1.0,74,0.00,,,0.00,meteohub,2013-07-24 10:12:00,
2013-07-24 03:17:00,55.0,46.9,30.15,SSE,165,0.0,0.0,74,0.00,,,0.00,meteohub,2013-07-24 10:17:00,
2013-07-24 03:22:00,54.9,46.8,30.15,SE,144,0.0,0.0,74,0.00,,,0.00,meteohub,2013-07-24 10:22:00,
2013-07-24 03:27:00,54.9,46.8,30.15,SSE,167,0.0,0.0,74,0.00,,,0.00,meteohub,2013-07-24 10:27:00,
2013-07-24 03:32:00,54.9,46.8,30.15,SSW,209,0.0,0.0,74,0.00,,,0.00,meteohub,2013-07-24 10:32:00,
2013-07-24 03:37:00,54.7,46.9,30.15,SSW,213,0.0,0.0,75,0.00,,,0.00,meteohub,2013-07-24 10:37:00,
2013-07-24 03:43:00,54.5,46.8,30.15,SE,144,1.0,0.0,75,0.00,,,0.00,meteohub,2013-07-24 10:43:00,
2013-07-24 03:48:00,54.3,46.6,30.15,SE,136,1.0,1.0,75,0.00,,,0.00,meteohub,2013-07-24 10:48:00,
2013-07-24 03:53:00,54.3,46.6,30.15,SE,130,0.0,1.0,75,0.00,,,0.00,meteohub,2013-07-24 10:53:00,
2013-07-24 03:58:00,54.1,46.4,30.15,SE,134,1.0,1.0,75,0.00,,,0.00,meteohub,2013-07-24 10:58:00,
2013-07-24 04:03:00,54.0,46.6,30.15,SSW,193,0.0,1.0,76,0.00,,,0.00,meteohub,2013-07-24 11:03:00,
2013-07-24 04:08:00,53.8,46.4,30.15,SSW,202,0.0,1.0,76,0.00,,,0.00,meteohub,2013-07-24 11:08:00,
2013-07-24 04:13:00,53.8,46.4,30.15,SE,142,0.0,1.0,76,0.00,,,0.00,meteohub,2013-07-24 11:13:00,
2013-07-24 04:18:00,54.0,46.6,30.15,SSE,159,0.0,1.0,76,0.00,,,0.00,meteohub,2013-07-24 11:18:00,
2013-07-24 04:23:00,54.0,46.2,30.15,South,175,0.0,0.0,75,0.00,,,0.00,meteohub,2013-07-24 11:23:00,
2013-07-24 04:28:00,54.0,46.2,30.15,SSW,209,0.0,0.0,75,0.00,,,0.00,meteohub,2013-07-24 11:28:00,
2013-07-24 04:33:00,54.0,46.2,30.15,SSW,209,0.0,0.0,75,0.00,,,0.00,meteohub,2013-07-24 11:33:00,
2013-07-24 04:38:00,54.0,46.6,30.15,SE,129,0.0,0.0,76,0.00,,,0.00,meteohub,2013-07-24 11:38:00,
2013-07-24 04:43:00,53.8,46.4,30.15,ESE,111,0.0,0.0,76,0.00,,,0.00,meteohub,2013-07-24 11:43:00,
2013-07-24 04:48:00,53.6,46.2,30.16,ESE,111,0.0,0.0,76,0.00,,,0.00,meteohub,2013-07-24 11:48:00,
2013-07-24 04:53:00,53.4,46.4,30.15,ESE,102,1.0,0.0,77,0.00,,,0.00,meteohub,2013-07-24 11:53:00,
2013-07-24 04:58:00,53.2,46.2,30.16,South,178,0.0,2.0,77,0.00,,,0.00,meteohub,2013-07-24 11:58:00,
2013-07-24 05:03:00,53.2,46.2,30.16,South,186,0.0,2.0,77,0.00,,,0.00,meteohub,2013-07-24 12:03:00,
2013-07-24 05:08:00,53.1,46.0,30.16,South,178,0.0,2.0,77,0.00,,,0.00,meteohub,2013-07-24 12:08:00,
2013-07-24 05:14:00,52.9,45.9,30.16,South,184,0.0,2.0,77,0.00,,,0.00,meteohub,2013-07-24 12:14:00,
2013-07-24 05:19:00,52.7,46.0,30.16,South,180,0.0,1.0,78,0.00,,,0.00,meteohub,2013-07-24 12:19:00,
2013-07-24 05:24:00,52.5,45.9,30.17,South,173,0.0,1.0,78,0.00,,,0.00,meteohub,2013-07-24 12:24:00,
2013-07-24 05:29:00,52.5,45.9,30.17,SSE,159,0.0,1.0,78,0.00,,,0.00,meteohub,2013-07-24 12:29:00,
2013-07-24 05:34:00,52.3,45.7,30.17,SSE,154,0.0,1.0,78,0.00,,,0.00,meteohub,2013-07-24 12:34:00,
2013-07-24 05:39:00,52.3,46.0,30.17,SSE,148,0.0,1.0,79,0.00,,,0.00,meteohub,2013-07-24 12:39:00,
2013-07-24 05:44:00,52.3,46.0,30.17,SSE,157,0.0,1.0,79,0.00,,,0.00,meteohub,2013-07-24 12:44:00,
2013-07-24 05:49:00,52.3,45.7,30.17,SSE,154,0.0,1.0,78,0.00,,,0.00,meteohub,2013-07-24 12:49:00,
2013-07-24 05:54:00,52.3,46.0,30.17,SSE,153,0.0,2.0,79,0.00,,,0.00,meteohub,2013-07-24 12:54:00,
2013-07-24 05:59:00,52.3,46.0,30.18,SE,145,0.0,2.0,79,0.00,,,0.00,meteohub,2013-07-24 12:59:00,
2013-07-24 06:04:00,52.3,46.0,30.17,SE,142,0.0,2.0,79,0.00,,,0.00,meteohub,2013-07-24 13:04:00,
2013-07-24 06:09:00,52.3,46.0,30.17,SSE,159,0.0,1.0,79,0.00,,,0.00,meteohub,2013-07-24 13:09:00,
2013-07-24 06:14:00,52.3,46.0,30.18,SSE,150,1.0,1.0,79,0.00,,,0.00,meteohub,2013-07-24 13:14:00,
2013-07-24 06:19:00,52.3,46.0,30.18,SSE,147,1.0,1.0,79,0.00,,,0.00,meteohub,2013-07-24 13:19:00,
2013-07-24 06:24:00,52.5,46.2,30.18,SSE,157,0.0,2.0,79,0.00,,,0.00,meteohub,2013-07-24 13:24:00,
2013-07-24 06:29:00,52.9,46.6,30.18,SSE,155,0.0,2.0,79,0.00,,,0.00,meteohub,2013-07-24 13:29:00,
2013-07-24 06:34:00,53.1,46.4,30.18,SSE,148,0.0,2.0,78,0.00,,,0.00,meteohub,2013-07-24 13:34:00,
2013-07-24 06:39:00,53.4,46.8,30.18,SSE,148,0.0,2.0,78,0.00,,,0.00,meteohub,2013-07-24 13:39:00,
2013-07-24 06:44:00,53.8,46.8,30.18,SSE,148,0.0,0.0,77,0.00,,,0.00,meteohub,2013-07-24 13:44:00,
2013-07-24 06:50:00,54.3,47.3,30.19,SSE,157,0.0,0.0,77,0.00,,,0.00,meteohub,2013-07-24 13:50:00,
2013-07-24 06:55:00,54.9,47.5,30.19,ESE,120,1.0,1.0,76,0.00,,,0.00,meteohub,2013-07-24 13:55:00,
2013-07-24 07:00:00,55.2,47.5,30.19,SSE,148,1.0,1.0,75,0.00,,,0.00,meteohub,2013-07-24 14:00:00,
2013-07-24 07:05:00,55.2,47.5,30.19,SSE,154,0.0,2.0,75,0.00,,,0.00,meteohub,2013-07-24 14:05:00,
2013-07-24 07:10:00,55.6,47.8,30.19,SSE,150,0.0,2.0,75,0.00,,,0.00,meteohub,2013-07-24 14:10:00,
2013-07-24 07:15:00,55.9,47.8,30.19,SE,137,1.0,2.0,74,0.00,,,0.00,meteohub,2013-07-24 14:15:00,
2013-07-24 07:20:00,56.3,47.8,30.19,SSE,149,2.0,2.0,73,0.00,,,0.00,meteohub,2013-07-24 14:20:00,
2013-07-24 07:25:00,56.8,48.2,30.19,SSE,152,0.0,2.0,73,0.00,,,0.00,meteohub,2013-07-24 14:25:00,
2013-07-24 07:30:00,57.4,48.4,30.19,SE,144,0.0,2.0,72,0.00,,,0.00,meteohub,2013-07-24 14:30:00,
2013-07-24 07:35:00,58.3,48.6,30.20,SE,132,0.0,2.0,70,0.00,,,0.00,meteohub,2013-07-24 14:35:00,
2013-07-24 07:40:00,58.8,48.7,30.19,SSE,147,0.0,2.0,69,0.00,,,0.00,meteohub,2013-07-24 14:40:00,
2013-07-24 07:45:00,59.7,49.1,30.19,SSE,157,0.0,2.0,68,0.00,,,0.00,meteohub,2013-07-24 14:45:00,
2013-07-24 07:50:00,60.8,49.8,30.19,SSE,157,0.0,2.0,67,0.00,,,0.00,meteohub,2013-07-24 14:50:00,
2013-07-24 07:56:00,62.1,49.8,30.20,SSE,157,0.0,0.0,64,0.00,,,0.00,meteohub,2013-07-24 14:56:00,
2013-07-24 08:01:00,63.5,50.7,30.19,SSE,156,0.0,1.0,63,0.00,,,0.00,meteohub,2013-07-24 15:01:00,
2013-07-24 08:06:00,64.9,49.8,30.20,SE,146,1.0,1.0,58,0.00,,,0.00,meteohub,2013-07-24 15:06:00,
2013-07-24 08:11:00,65.8,51.1,30.19,SE,126,0.0,2.0,59,0.00,,,0.00,meteohub,2013-07-24 15:11:00,
2013-07-24 08:16:00,67.3,52.9,30.19,SE,126,0.0,2.0,60,0.00,,,0.00,meteohub,2013-07-24 15:16:00,
2013-07-24 08:21:00,67.8,52.0,30.19,NNW,338,1.0,2.0,57,0.00,,,0.00,meteohub,2013-07-24 15:21:00,
2013-07-24 08:26:00,67.3,51.4,30.19,NNE,28,1.0,2.0,57,0.00,,,0.00,meteohub,2013-07-24 15:26:00,
2013-07-24 08:31:00,66.2,52.0,30.19,NNE,17,3.0,3.0,60,0.00,,,0.00,meteohub,2013-07-24 15:31:00,
2013-07-24 08:36:00,65.1,53.1,30.19,NNE,20,3.0,3.0,65,0.00,,,0.00,meteohub,2013-07-24 15:36:00,
2013-07-24 08:41:00,64.8,52.3,30.19,North,5,1.0,4.0,64,0.00,,,0.00,meteohub,2013-07-24 15:41:00,
2013-07-24 08:46:00,64.9,52.5,30.19,NE,42,3.0,4.0,64,0.00,,,0.00,meteohub,2013-07-24 15:46:00,
2013-07-24 08:51:00,65.1,51.3,30.19,NE,42,2.0,4.0,61,0.00,,,0.00,meteohub,2013-07-24 15:51:00,
2013-07-24 08:56:00,65.5,50.7,30.20,NNE,24,1.0,3.0,59,0.00,,,0.00,meteohub,2013-07-24 15:56:00,
2013-07-24 09:01:00,65.7,53.6,30.20,NNW,342,4.0,4.0,65,0.00,,,0.00,meteohub,2013-07-24 16:01:00,
2013-07-24 09:06:00,64.9,52.9,30.20,NW,324,1.0,5.0,65,0.00,,,0.00,meteohub,2013-07-24 16:06:00,
2013-07-24 09:11:00,64.9,52.5,30.20,NW,323,2.0,5.0,64,0.00,,,0.00,meteohub,2013-07-24 16:11:00,
2013-07-24 09:17:00,65.1,50.9,30.19,NW,319,2.0,5.0,60,0.00,,,0.00,meteohub,2013-07-24 16:17:00,
2013-07-24 09:22:00,65.7,52.7,30.20,NW,323,3.0,4.0,63,0.00,,,0.00,meteohub,2013-07-24 16:22:00,
2013-07-24 09:27:00,65.8,54.1,30.20,NNW,340,2.0,4.0,66,0.00,,,0.00,meteohub,2013-07-24 16:27:00,
2013-07-24 09:32:00,66.0,54.7,30.19,NW,317,2.0,4.0,67,0.00,,,0.00,meteohub,2013-07-24 16:32:00,
2013-07-24 09:37:00,66.0,54.3,30.19,NNW,331,3.0,5.0,66,0.00,,,0.00,meteohub,2013-07-24 16:37:00,
2013-07-24 09:42:00,66.2,55.8,30.19,NW,319,4.0,5.0,69,0.00,,,0.00,meteohub,2013-07-24 16:42:00,
2013-07-24 09:47:00,66.6,55.2,30.19,North,355,1.0,5.0,67,0.00,,,0.00,meteohub,2013-07-24 16:47:00,
2013-07-24 09:52:00,66.9,55.9,30.19,NNW,338,2.0,5.0,68,0.00,,,0.00,meteohub,2013-07-24 16:52:00,
2013-07-24 09:57:00,67.3,53.4,30.19,NW,326,3.0,5.0,61,0.00,,,0.00,meteohub,2013-07-24 16:57:00,
2013-07-24 10:02:00,67.3,52.9,30.19,NW,323,5.0,5.0,60,0.00,,,0.00,meteohub,2013-07-24 17:02:00,
2013-07-24 10:07:00,67.5,53.1,30.19,NW,326,3.0,6.0,60,0.00,,,0.00,meteohub,2013-07-24 17:07:00,
2013-07-24 10:12:00,67.6,51.4,30.19,NW,322,6.0,6.0,56,0.00,,,0.00,meteohub,2013-07-24 17:12:00,
2013-07-24 10:17:00,67.3,54.3,30.19,NW,320,7.0,7.0,63,0.00,,,0.00,meteohub,2013-07-24 17:17:00,
2013-07-24 10:22:00,67.1,52.3,30.19,NW,325,5.0,7.0,59,0.00,,,0.00,meteohub,2013-07-24 17:22:00,
2013-07-24 10:27:00,67.5,51.3,30.19,NNW,327,6.0,7.0,56,0.00,,,0.00,meteohub,2013-07-24 17:27:00,
2013-07-24 10:32:00,67.5,49.8,30.19,NNW,340,7.0,7.0,53,0.00,,,0.00,meteohub,2013-07-24 17:32:00,
2013-07-24 10:37:00,67.1,54.9,30.19,NNE,19,7.0,9.0,65,0.00,,,0.00,meteohub,2013-07-24 17:37:00,
2013-07-24 10:42:00,67.3,53.8,30.19,North,5,8.0,10.0,62,0.00,,,0.00,meteohub,2013-07-24 17:42:00,
2013-07-24 10:47:00,67.1,53.6,30.19,NNE,23,8.0,10.0,62,0.00,,,0.00,meteohub,2013-07-24 17:47:00,
2013-07-24 10:52:00,67.5,54.0,30.19,North,355,9.0,9.0,62,0.00,,,0.00,meteohub,2013-07-24 17:52:00,
2013-07-24 10:57:00,67.6,53.8,30.19,North,350,8.0,9.0,61,0.00,,,0.00,meteohub,2013-07-24 17:57:00,
2013-07-24 11:02:00,67.8,56.1,30.19,NNW,342,8.0,9.0,66,0.00,,,0.00,meteohub,2013-07-24 18:02:00,
2013-07-24 11:07:00,68.0,53.1,30.19,NNW,335,7.0,9.0,59,0.00,,,0.00,meteohub,2013-07-24 18:07:00,
2013-07-24 11:12:00,68.0,54.5,30.19,NNW,340,8.0,9.0,62,0.00,,,0.00,meteohub,2013-07-24 18:12:00,
2013-07-24 11:17:00,68.2,53.2,30.19,NNW,338,8.0,9.0,59,0.00,,,0.00,meteohub,2013-07-24 18:17:00,
2013-07-24 11:22:00,68.2,53.2,30.19,NNW,340,7.0,10.0,59,0.00,,,0.00,meteohub,2013-07-24 18:22:00,
2013-07-24 11:28:00,68.5,54.1,30.19,NNW,342,6.0,10.0,60,0.00,,,0.00,meteohub,2013-07-24 18:28:00,
2013-07-24 11:33:00,68.7,52.0,30.19,NNW,336,7.0,10.0,55,0.00,,,0.00,meteohub,2013-07-24 18:33:00,
2013-07-24 11:38:00,68.9,53.1,30.19,NNW,336,7.0,9.0,57,0.00,,,0.00,meteohub,2013-07-24 18:38:00,
2013-07-24 11:43:00,69.1,52.2,30.19,NNW,331,7.0,8.0,55,0.00,,,0.00,meteohub,2013-07-24 18:43:00,
2013-07-24 11:48:00,69.3,54.9,30.19,NNW,331,6.0,8.0,60,0.00,,,0.00,meteohub,2013-07-24 18:48:00,
2013-07-24 11:53:00,69.3,52.9,30.19,NNW,337,6.0,8.0,56,0.00,,,0.00,meteohub,2013-07-24 18:53:00,
2013-07-24 11:58:00,69.6,54.1,30.19,NNW,345,9.0,9.0,58,0.00,,,0.00,meteohub,2013-07-24 18:58:00,
2013-07-24 12:03:00,69.8,52.3,30.19,NNW,337,8.0,9.0,54,0.00,,,0.00,meteohub,2013-07-24 19:03:00,
2013-07-24 12:08:00,70.0,52.0,30.19,NNW,337,7.0,9.0,53,0.00,,,0.00,meteohub,2013-07-24 19:08:00,
2013-07-24 12:13:00,70.0,50.5,30.19,NNW,336,7.0,9.0,50,0.00,,,0.00,meteohub,2013-07-24 19:13:00,
2013-07-24 12:18:00,70.2,50.7,30.19,NNW,347,7.0,9.0,50,0.00,,,0.00,meteohub,2013-07-24 19:18:00,
2013-07-24 12:23:00,70.3,52.9,30.19,NNW,333,8.0,9.0,54,0.00,,,0.00,meteohub,2013-07-24 19:23:00,
2013-07-24 12:28:00,70.3,50.9,30.19,NW,323,6.0,9.0,50,0.00,,,0.00,meteohub,2013-07-24 19:28:00,
2013-07-24 12:33:00,70.3,52.3,30.19,NNW,336,6.0,9.0,53,0.00,,,0.00,meteohub,2013-07-24 19:33:00,
2013-07-24 12:38:00,70.3,52.3,30.19,NNW,338,6.0,9.0,53,0.00,,,0.00,meteohub,2013-07-24 19:38:00,
2013-07-24 12:44:00,70.3,53.4,30.19,NNW,344,7.0,8.0,55,0.00,,,0.00,meteohub,2013-07-24 19:44:00,
2013-07-24 12:49:00,70.3,53.4,30.19,NNW,342,6.0,8.0,55,0.00,,,0.00,meteohub,2013-07-24 19:49:00,
2013-07-24 12:54:00,70.3,55.4,30.19,NNE,15,6.0,8.0,59,0.00,,,0.00,meteohub,2013-07-24 19:54:00,
2013-07-24 12:59:00,70.5,53.1,30.19,NNW,329,7.0,7.0,54,0.00,,,0.00,meteohub,2013-07-24 19:59:00,
2013-07-24 13:04:00,70.7,54.7,30.18,NNW,332,7.0,8.0,57,0.00,,,0.00,meteohub,2013-07-24 20:04:00,
2013-07-24 13:09:00,70.9,54.3,30.18,NNW,344,8.0,8.0,56,0.00,,,0.00,meteohub,2013-07-24 20:09:00,
2013-07-24 13:14:00,71.1,55.0,30.18,NNE,13,7.0,8.0,57,0.00,,,0.00,meteohub,2013-07-24 20:14:00,
2013-07-24 13:19:00,71.2,53.8,30.18,NNE,16,7.0,8.0,54,0.00,,,0.00,meteohub,2013-07-24 20:19:00,
2013-07-24 13:24:00,71.2,53.8,30.18,NNW,334,7.0,8.0,54,0.00,,,0.00,meteohub,2013-07-24 20:24:00,
2013-07-24 13:29:00,71.2,54.3,30.18,NNE,15,8.0,9.0,55,0.00,,,0.00,meteohub,2013-07-24 20:29:00,
2013-07-24 13:34:00,71.2,54.3,30.18,North,355,8.0,9.0,55,0.00,,,0.00,meteohub,2013-07-24 20:34:00,
2013-07-24 13:39:00,71.4,54.5,30.18,NNW,344,7.0,9.0,55,0.00,,,0.00,meteohub,2013-07-24 20:39:00,
2013-07-24 13:44:00,71.4,52.3,30.18,NNE,24,7.0,9.0,51,0.00,,,0.00,meteohub,2013-07-24 20:44:00,
2013-07-24 13:50:00,71.6,55.6,30.18,NNW,339,8.0,9.0,57,0.00,,,0.00,meteohub,2013-07-24 20:50:00,
2013-07-24 13:55:00,71.6,52.0,30.18,NNW,329,6.0,8.0,50,0.00,,,0.00,meteohub,2013-07-24 20:55:00,
2013-07-24 14:00:00,71.8,54.3,30.18,NNW,338,7.0,8.0,54,0.00,,,0.00,meteohub,2013-07-24 21:00:00,
2013-07-24 14:05:00,72.0,56.3,30.18,NNW,337,8.0,9.0,58,0.00,,,0.00,meteohub,2013-07-24 21:05:00,
2013-07-24 14:10:00,71.8,54.7,30.18,NNW,333,6.0,9.0,55,0.00,,,0.00,meteohub,2013-07-24 21:10:00,
2013-07-24 14:15:00,72.0,56.8,30.18,NNW,337,6.0,9.0,59,0.00,,,0.00,meteohub,2013-07-24 21:15:00,
2013-07-24 14:20:00,72.1,56.1,30.18,NNE,23,7.0,8.0,57,0.00,,,0.00,meteohub,2013-07-24 21:20:00,
2013-07-24 14:25:00,72.1,54.5,30.18,NNW,335,6.0,8.0,54,0.00,,,0.00,meteohub,2013-07-24 21:25:00,
2013-07-24 14:30:00,72.0,55.4,30.17,NNE,22,6.0,8.0,56,0.00,,,0.00,meteohub,2013-07-24 21:30:00,
2013-07-24 14:35:00,72.0,57.4,30.18,North,5,8.0,9.0,60,0.00,,,0.00,meteohub,2013-07-24 21:35:00,
2013-07-24 14:40:00,72.0,55.9,30.18,NNW,342,7.0,9.0,57,0.00,,,0.00,meteohub,2013-07-24 21:40:00,
2013-07-24 14:45:00,72.0,55.4,30.17,NE,35,7.0,9.0,56,0.00,,,0.00,meteohub,2013-07-24 21:45:00,
2013-07-24 14:50:00,72.0,58.6,30.17,NE,36,7.0,9.0,63,0.00,,,0.00,meteohub,2013-07-24 21:50:00,
2013-07-24 14:55:00,72.0,59.2,30.17,NNE,32,8.0,9.0,64,0.00,,,0.00,meteohub,2013-07-24 21:55:00,
2013-07-24 15:00:00,72.0,57.4,30.17,NE,34,8.0,10.0,60,0.00,,,0.00,meteohub,2013-07-24 22:00:00,
2013-07-24 15:05:00,72.1,55.0,30.17,NNW,342,9.0,11.0,55,0.00,,,0.00,meteohub,2013-07-24 22:05:00,
2013-07-24 15:11:00,72.5,54.3,30.17,NNW,335,8.0,11.0,53,0.00,,,0.00,meteohub,2013-07-24 22:11:00,
2013-07-24 15:16:00,72.7,56.1,30.16,NNW,333,8.0,11.0,56,0.00,,,0.00,meteohub,2013-07-24 22:16:00,
2013-07-24 15:21:00,72.7,57.6,30.16,NNW,339,7.0,11.0,59,0.00,,,0.00,meteohub,2013-07-24 22:21:00,
2013-07-24 15:26:00,72.7,56.1,30.16,NNE,12,8.0,10.0,56,0.00,,,0.00,meteohub,2013-07-24 22:26:00,
2013-07-24 15:31:00,72.9,55.2,30.15,North,355,7.0,10.0,54,0.00,,,0.00,meteohub,2013-07-24 22:31:00,
2013-07-24 15:36:00,73.2,55.0,30.15,NNW,333,9.0,12.0,53,0.00,,,0.00,meteohub,2013-07-24 22:36:00,
2013-07-24 15:41:00,73.0,57.4,30.15,North,350,8.0,12.0,58,0.00,,,0.00,meteohub,2013-07-24 22:41:00,
2013-07-24 15:47:00,73.0,56.5,30.15,NNW,338,8.0,12.0,56,0.00,,,0.00,meteohub,2013-07-24 22:47:00,
2013-07-24 15:52:00,73.2,58.1,30.15,NE,42,8.0,11.0,59,0.00,,,0.00,meteohub,2013-07-24 22:52:00,
2013-07-24 15:57:00,73.2,55.0,30.15,NNE,31,9.0,12.0,53,0.00,,,0.00,meteohub,2013-07-24 22:57:00,
2013-07-24 16:02:00,73.2,57.0,30.15,NNW,338,7.0,12.0,57,0.00,,,0.00,meteohub,2013-07-24 23:02:00,
2013-07-24 16:07:00,73.2,56.7,30.14,NNW,331,6.0,12.0,56,0.00,,,0.00,meteohub,2013-07-24 23:07:00,
2013-07-24 16:12:00,73.2,58.1,30.14,NNW,333,6.0,11.0,59,0.00,,,0.00,meteohub,2013-07-24 23:12:00,
2013-07-24 16:17:00,73.2,59.0,30.14,NNW,330,7.0,8.0,61,0.00,,,0.00,meteohub,2013-07-24 23:17:00,
2013-07-24 16:22:00,73.2,57.6,30.14,NNE,16,6.0,8.0,58,0.00,,,0.00,meteohub,2013-07-24 23:22:00,
2013-07-24 16:27:00,73.2,59.4,30.14,NE,35,7.0,8.0,62,0.00,,,0.00,meteohub,2013-07-24 23:27:00,
2013-07-24 16:32:00,73.2,59.9,30.14,NNW,338,7.0,8.0,63,0.00,,,0.00,meteohub,2013-07-24 23:32:00,
2013-07-24 16:37:00,73.6,57.9,30.14,NNW,333,5.0,9.0,58,0.00,,,0.00,meteohub,2013-07-24 23:37:00,
2013-07-24 16:42:00,73.8,57.0,30.14,NW,326,6.0,9.0,56,0.00,,,0.00,meteohub,2013-07-24 23:42:00,
2013-07-24 16:47:00,73.8,57.6,30.13,NW,326,4.0,10.0,57,0.00,,,0.00,meteohub,2013-07-24 23:47:00,
2013-07-24 16:52:00,74.1,56.5,30.13,NW,326,4.0,10.0,54,0.00,,,0.00,meteohub,2013-07-24 23:52:00,
2013-07-24 16:57:00,73.9,59.7,30.13,NNW,329,4.0,9.0,61,0.00,,,0.00,meteohub,2013-07-24 23:57:00,
2013-07-24 17:02:00,73.9,57.7,30.13,NW,321,6.0,7.0,57,0.00,,,0.00,meteohub,2013-07-25 00:02:00,
2013-07-24 17:07:00,73.9,58.3,30.13,NNW,330,6.0,7.0,58,0.00,,,0.00,meteohub,2013-07-25 00:07:00,
2013-07-24 17:12:00,73.9,59.7,30.12,NNE,26,5.0,7.0,61,0.00,,,0.00,meteohub,2013-07-25 00:12:00,
2013-07-24 17:17:00,73.8,61.3,30.12,NNE,33,7.0,7.0,65,0.00,,,0.00,meteohub,2013-07-25 00:17:00,
2013-07-24 17:22:00,73.8,58.5,30.12,NNE,22,7.0,8.0,59,0.00,,,0.00,meteohub,2013-07-25 00:22:00,
2013-07-24 17:27:00,73.6,60.3,30.12,NE,34,7.0,9.0,63,0.00,,,0.00,meteohub,2013-07-25 00:27:00,
2013-07-24 17:33:00,73.2,62.1,30.12,NE,35,6.0,9.0,68,0.00,,,0.00,meteohub,2013-07-25 00:33:00,
2013-07-24 17:38:00,73.6,58.3,30.12,NNW,334,6.0,9.0,59,0.00,,,0.00,meteohub,2013-07-25 00:38:00,
2013-07-24 17:43:00,73.8,59.0,30.12,NNW,337,6.0,8.0,60,0.00,,,0.00,meteohub,2013-07-25 00:43:00,
2013-07-24 17:48:00,73.9,58.6,30.11,NNW,327,7.0,8.0,59,0.00,,,0.00,meteohub,2013-07-25 00:48:00,
2013-07-24 17:53:00,73.9,60.6,30.12,NW,326,7.0,8.0,63,0.00,,,0.00,meteohub,2013-07-25 00:53:00,
2013-07-24 17:58:00,73.9,59.7,30.12,NNW,327,6.0,8.0,61,0.00,,,0.00,meteohub,2013-07-25 00:58:00,
2013-07-24 18:03:00,73.9,57.2,30.12,NNW,329,5.0,8.0,56,0.00,,,0.00,meteohub,2013-07-25 01:03:00,
2013-07-24 18:08:00,73.9,58.6,30.12,NW,326,8.0,10.0,59,0.00,,,0.00,meteohub,2013-07-25 01:08:00,
2013-07-24 18:13:00,74.1,56.8,30.12,NW,326,6.0,10.0,55,0.00,,,0.00,meteohub,2013-07-25 01:13:00,
2013-07-24 18:18:00,74.1,59.7,30.12,NW,322,5.0,11.0,61,0.00,,,0.00,meteohub,2013-07-25 01:18:00,
2013-07-24 18:23:00,74.1,58.5,30.12,NW,326,5.0,11.0,58,0.00,,,0.00,meteohub,2013-07-25 01:23:00,
2013-07-24 18:28:00,74.5,58.8,30.12,NNW,348,4.0,12.0,58,0.00,,,0.00,meteohub,2013-07-25 01:28:00,
2013-07-24 18:33:00,74.5,59.7,30.12,NNW,331,6.0,12.0,60,0.00,,,0.00,meteohub,2013-07-25 01:33:00,
2013-07-24 18:38:00,74.5,58.8,30.12,NNW,332,3.0,12.0,58,0.00,,,0.00,meteohub,2013-07-25 01:38:00,
2013-07-24 18:43:00,74.1,58.8,30.12,NW,310,5.0,10.0,59,0.00,,,0.00,meteohub,2013-07-25 01:43:00,
2013-07-24 18:48:00,73.9,60.6,30.12,NNW,336,1.0,10.0,63,0.00,,,0.00,meteohub,2013-07-25 01:48:00,
2013-07-24 18:53:00,74.1,60.3,30.12,NNW,340,2.0,10.0,62,0.00,,,0.00,meteohub,2013-07-25 01:53:00,
2013-07-24 18:59:00,74.3,59.5,30.12,NW,316,5.0,10.0,60,0.00,,,0.00,meteohub,2013-07-25 01:59:00,
2013-07-24 19:04:00,73.8,58.5,30.12,NW,320,2.0,7.0,59,0.00,,,0.00,meteohub,2013-07-25 02:04:00,
2013-07-24 19:09:00,73.6,60.3,30.12,NNW,327,4.0,10.0,63,0.00,,,0.00,meteohub,2013-07-25 02:09:00,
2013-07-24 19:14:00,73.0,60.6,30.12,NW,322,0.0,10.0,65,0.00,,,0.00,meteohub,2013-07-25 02:14:00,
2013-07-24 19:19:00,73.6,59.7,30.13,NW,311,1.0,10.0,62,0.00,,,0.00,meteohub,2013-07-25 02:19:00,
2013-07-24 19:24:00,73.2,59.4,30.13,NNW,327,3.0,7.0,62,0.00,,,0.00,meteohub,2013-07-25 02:24:00,
2013-07-24 19:29:00,73.0,59.2,30.13,NW,319,3.0,7.0,62,0.00,,,0.00,meteohub,2013-07-25 02:29:00,
2013-07-24 19:34:00,72.9,56.7,30.13,NW,315,0.0,5.0,57,0.00,,,0.00,meteohub,2013-07-25 02:34:00,
2013-07-24 19:39:00,73.0,57.9,30.13,NW,319,5.0,5.0,59,0.00,,,0.00,meteohub,2013-07-25 02:39:00,
2013-07-24 19:44:00,73.2,58.1,30.13,NNW,331,0.0,5.0,59,0.00,,,0.00,meteohub,2013-07-25 02:44:00,
2013-07-24 19:50:00,73.4,57.2,30.13,NNW,331,0.0,5.0,57,0.00,,,0.00,meteohub,2013-07-25 02:50:00,
2013-07-24 19:55:00,73.6,56.8,30.13,NNW,331,0.0,5.0,56,0.00,,,0.00,meteohub,2013-07-25 02:55:00,
2013-07-24 20:00:00,73.2,55.6,30.13,SSW,213,0.0,4.0,54,0.00,,,0.00,meteohub,2013-07-25 03:00:00,
2013-07-24 20:05:00,72.9,54.7,30.13,SSW,205,0.0,1.0,53,0.00,,,0.00,meteohub,2013-07-25 03:05:00,
2013-07-24 20:10:00,72.3,54.7,30.14,SSW,205,0.0,2.0,54,0.00,,,0.00,meteohub,2013-07-25 03:10:00,
2013-07-24 20:15:00,71.8,54.7,30.14,SSW,205,0.0,2.0,55,0.00,,,0.00,meteohub,2013-07-25 03:15:00,
2013-07-24 20:21:00,71.4,54.0,30.14,SE,131,0.0,4.0,54,0.00,,,0.00,meteohub,2013-07-25 03:21:00,
2013-07-24 20:26:00,71.2,53.8,30.14,South,185,0.0,4.0,54,0.00,,,0.00,meteohub,2013-07-25 03:26:00,
2013-07-24 20:31:00,71.1,54.1,30.15,SSE,161,0.0,4.0,55,0.00,,,0.00,meteohub,2013-07-25 03:31:00,
2013-07-24 20:36:00,70.9,54.9,30.14,SE,126,0.0,1.0,57,0.00,,,0.00,meteohub,2013-07-25 03:36:00,
2013-07-24 20:41:00,70.5,55.0,30.15,SE,132,0.0,1.0,58,0.00,,,0.00,meteohub,2013-07-25 03:41:00,
2013-07-24 20:46:00,70.2,55.2,30.15,ESE,114,0.0,3.0,59,0.00,,,0.00,meteohub,2013-07-25 03:46:00,
2013-07-24 20:51:00,70.0,54.5,30.15,SSE,155,1.0,4.0,58,0.00,,,0.00,meteohub,2013-07-25 03:51:00,
2013-07-24 20:56:00,70.0,55.0,30.15,ENE,57,2.0,5.0,59,0.00,,,0.00,meteohub,2013-07-25 03:56:00,
2013-07-24 21:01:00,70.0,54.0,30.16,East,90,2.0,9.0,57,0.00,,,0.00,meteohub,2013-07-25 04:01:00,
2013-07-24 21:02:00,70.0,54.0,30.16,NE,53,2.0,9.0,57,0.00,,,0.00,meteohub,2013-07-25 04:02:00,
2013-07-24 21:04:00,70.0,54.5,30.16,ESE,108,0.0,9.0,58,0.00,,,0.00,meteohub,2013-07-25 04:04:00,
2013-07-24 21:09:00,69.8,53.4,30.16,ESE,117,2.0,9.0,56,0.00,,,0.00,meteohub,2013-07-25 04:09:00,
2013-07-24 21:14:00,69.8,54.0,30.16,NE,50,1.0,9.0,57,0.00,,,0.00,meteohub,2013-07-25 04:14:00,
2013-07-24 21:19:00,69.6,53.8,30.16,NE,56,2.0,8.0,57,0.00,,,0.00,meteohub,2013-07-25 04:19:00,
2013-07-24 21:24:00,69.6,54.1,30.16,NE,49,6.0,7.0,58,0.00,,,0.00,meteohub,2013-07-25 04:24:00,
2013-07-24 21:29:00,69.6,54.1,30.17,NE,49,9.0,9.0,58,0.00,,,0.00,meteohub,2013-07-25 04:29:00,
2013-07-24 21:34:00,70.2,55.2,30.17,NE,49,7.0,11.0,59,0.00,,,0.00,meteohub,2013-07-25 04:34:00,
2013-07-24 21:40:00,70.0,53.1,30.17,NE,36,0.0,11.0,55,0.00,,,0.00,meteohub,2013-07-25 04:40:00,
2013-07-24 21:45:00,69.8,55.2,30.17,NE,51,3.0,11.0,60,0.00,,,0.00,meteohub,2013-07-25 04:45:00,
2013-07-24 21:50:00,69.8,54.9,30.17,ENE,61,5.0,11.0,59,0.00,,,0.00,meteohub,2013-07-25 04:50:00,
2013-07-24 21:55:00,69.8,55.8,30.17,East,81,2.0,9.0,61,0.00,,,0.00,meteohub,2013-07-25 04:55:00,
2013-07-24 22:00:00,69.6,54.1,30.17,NE,46,0.0,9.0,58,0.00,,,0.00,meteohub,2013-07-25 05:00:00,
2013-07-24 22:05:00,69.4,54.5,30.17,East,87,1.0,9.0,59,0.00,,,0.00,meteohub,2013-07-25 05:05:00,
2013-07-24 22:10:00,69.3,52.9,30.17,ESE,111,0.0,9.0,56,0.00,,,0.00,meteohub,2013-07-25 05:10:00,
2013-07-24 22:15:00,68.7,52.3,30.17,SE,125,0.0,7.0,56,0.00,,,0.00,meteohub,2013-07-25 05:15:00,
2013-07-24 22:20:00,68.2,52.3,30.17,SE,140,0.0,7.0,57,0.00,,,0.00,meteohub,2013-07-25 05:20:00,
2013-07-24 22:25:00,67.6,52.3,30.17,SE,140,1.0,2.0,58,0.00,,,0.00,meteohub,2013-07-25 05:25:00,
2013-07-24 22:30:00,67.3,52.0,30.17,SE,146,0.0,1.0,58,0.00,,,0.00,meteohub,2013-07-25 05:30:00,
2013-07-24 22:35:00,66.7,52.0,30.17,SSE,153,0.0,1.0,59,0.00,,,0.00,meteohub,2013-07-25 05:35:00,
2013-07-24 22:40:00,66.4,51.6,30.17,SSE,153,0.0,2.0,59,0.00,,,0.00,meteohub,2013-07-25 05:40:00,
2013-07-24 22:45:00,66.0,51.3,30.17,SE,128,0.0,2.0,59,0.00,,,0.00,meteohub,2013-07-25 05:45:00,
2013-07-24 22:50:00,65.5,50.7,30.17,SSE,158,0.0,2.0,59,0.00,,,0.00,meteohub,2013-07-25 05:50:00,
2013-07-24 22:55:00,65.1,50.9,30.17,South,173,0.0,2.0,60,0.00,,,0.00,meteohub,2013-07-25 05:55:00,
2013-07-24 23:00:00,64.9,50.7,30.17,SSE,156,0.0,2.0,60,0.00,,,0.00,meteohub,2013-07-25 06:00:00,
2013-07-24 23:05:00,64.6,50.9,30.17,SSE,160,0.0,1.0,61,0.00,,,0.00,meteohub,2013-07-25 06:05:00,
2013-07-24 23:10:00,64.4,50.7,30.17,South,178,0.0,1.0,61,0.00,,,0.00,meteohub,2013-07-25 06:10:00,
2013-07-24 23:15:00,64.0,50.7,30.17,SSE,167,0.0,1.0,62,0.00,,,0.00,meteohub,2013-07-25 06:15:00,
2013-07-24 23:20:00,64.0,50.7,30.18,SSE,157,0.0,1.0,62,0.00,,,0.00,meteohub,2013-07-25 06:20:00,
2013-07-24 23:26:00,63.7,50.9,30.18,South,180,0.0,1.0,63,0.00,,,0.00,meteohub,2013-07-25 06:26:00,
2013-07-24 23:31:00,63.5,50.7,30.18,SE,143,0.0,1.0,63,0.00,,,0.00,meteohub,2013-07-25 06:31:00,
2013-07-24 23:36:00,63.3,50.5,30.18,SSE,154,0.0,1.0,63,0.00,,,0.00,meteohub,2013-07-25 06:36:00,
2013-07-24 23:41:00,63.0,50.5,30.18,SW,217,0.0,1.0,64,0.00,,,0.00,meteohub,2013-07-25 06:41:00,
2013-07-24 23:46:00,63.0,50.5,30.18,SW,214,0.0,1.0,64,0.00,,,0.00,meteohub,2013-07-25 06:46:00,
2013-07-24 23:51:00,62.8,50.4,30.18,SSE,159,0.0,1.0,64,0.00,,,0.00,meteohub,2013-07-25 06:51:00,
2013-07-24 23:56:00,62.6,50.7,30.17,SE,126,0.0,1.0,65,0.00,,,0.00,meteohub,2013-07-25 06:56:00,